Time;durP1;ratioP1;P1;durP2;ratioP2;P2;SDS_P1;SDS_P2;PMS_P1;PMS_P2;Temp;Humidity;BMP_temperature;BMP_pressure;BME280_temperature;BME280_humidity;BME280_pressure;Samples;Min_cycle;Max_cycle;Signal;HPM_P1;HPM_P2
2021/12/16 00:09:31;;;;;;;22.60;12.53;;;7.20;99.90;;;;;;5067713;28;20232;-80
2021/12/16 00:31:23;;;;;;;15.43;9.03;;;7.20;99.90;;;;;;5067861;28;20271;-78
2021/12/16 00:34:03;;;;;;;18.97;9.63;;;7.20;99.90;;;;;;5067653;28;20205;-78
2021/12/16 00:36:33;;;;;;;17.60;9.50;;;7.20;99.90;;;;;;5066727;28;20177;-78
2021/12/16 00:39:06;;;;;;;16.07;9.00;;;7.10;99.90;;;;;;5049202;28;20188;-79
2021/12/16 00:41:33;;;;;;;17.83;9.57;;;7.10;99.90;;;;;;5056607;28;20186;-79
2021/12/16 00:44:07;;;;;;;15.83;9.47;;;7.10;99.90;;;;;;5049791;28;20182;-78
2021/12/16 00:54:38;;;;;;;16.90;9.77;;;7.20;99.90;;;;;;5066348;28;20185;-79
2021/12/16 00:57:11;;;;;;;17.03;9.37;;;7.20;99.90;;;;;;5049037;28;20188;-78
2021/12/16 00:59:40;;;;;;;18.23;10.00;;;7.20;99.90;;;;;;5066710;28;20240;-78
2021/12/16 01:02:21;;;;;;;16.77;10.23;;;7.20;99.90;;;;;;5048628;28;20177;-77
2021/12/16 01:33:37;;;;;;;17.73;10.40;;;7.10;99.90;;;;;;5066761;28;20176;-80
2021/12/16 01:35:29;;;;;;;17.73;9.97;;;7.00;99.90;;;;;;5066562;28;20789;-77
2021/12/16 01:38:34;;;;;;;19.33;9.87;;;6.90;99.90;;;;;;5065344;28;20204;-79
2021/12/16 01:51:24;;;;;;;19.70;10.63;;;6.40;99.90;;;;;;5065908;28;20195;-79
2021/12/16 01:59:10;;;;;;;21.77;11.17;;;6.10;99.90;;;;;;5065701;28;20330;-78
2021/12/16 02:01:38;;;;;;;18.90;10.77;;;5.90;99.90;;;;;;5046627;28;20182;-81
2021/12/16 02:04:15;;;;;;;18.93;11.27;;;5.90;99.90;;;;;;5047582;28;20178;-80
2021/12/16 02:07:06;;;;;;;19.83;11.10;;;6.00;99.90;;;;;;5065402;28;20177;-80
2021/12/16 02:09:40;;;;;;;21.83;11.90;;;6.00;99.90;;;;;;5064957;28;20633;-79
2021/12/16 02:34:20;;;;;;;20.50;11.90;;;5.90;99.90;;;;;;5066985;28;20334;-77
2021/12/16 02:36:44;;;;;;;20.90;12.20;;;6.00;99.90;;;;;;5066179;28;20307;-77
2021/12/16 02:39:19;;;;;;;20.27;11.60;;;6.00;99.90;;;;;;5048870;28;21097;-78
2021/12/16 02:41:47;;;;;;;22.60;11.40;;;6.00;99.90;;;;;;5067026;28;20596;-79
2021/12/16 02:44:27;;;;;;;22.83;13.07;;;6.00;99.90;;;;;;5048501;28;20205;-78
2021/12/16 02:49:44;;;;;;;18.00;11.03;;;6.10;99.90;;;;;;5066856;28;20308;-77
2021/12/16 02:52:11;;;;;;;22.67;11.20;;;6.10;99.90;;;;;;5066172;28;20186;-76
2021/12/16 02:54:37;;;;;;;22.80;12.73;;;6.10;99.90;;;;;;5048679;28;20196;-77
2021/12/16 02:57:04;;;;;;;22.73;12.87;;;6.10;99.90;;;;;;5046356;28;20178;-79
2021/12/16 02:59:31;;;;;;;23.93;13.00;;;6.10;99.90;;;;;;5065222;28;20224;-80
2021/12/16 03:02:05;;;;;;;22.33;12.30;;;6.10;99.90;;;;;;5064399;28;20658;-77
2021/12/16 03:04:31;;;;;;;23.23;13.40;;;6.00;99.90;;;;;;5065215;28;20200;-82
2021/12/16 03:06:58;;;;;;;24.87;13.63;;;6.00;99.90;;;;;;5047143;28;20669;-78
2021/12/16 03:15:03;;;;;;;23.87;13.63;;;5.90;99.90;;;;;;5066026;28;20186;-79
2021/12/16 03:17:58;;;;;;;30.37;14.77;;;5.90;99.90;;;;;;5066987;28;20200;-78
2021/12/16 03:20:28;;;;;;;26.03;14.17;;;5.80;99.90;;;;;;5068763;28;20221;-79
2021/12/16 03:25:39;;;;;;;25.63;14.17;;;5.90;99.90;;;;;;5069546;28;20263;-79
2021/12/16 03:28:27;;;;;;;23.30;13.03;;;5.90;99.90;;;;;;5069474;28;20173;-78
2021/12/16 03:38:50;;;;;;;25.20;13.40;;;6.00;99.90;;;;;;5069524;28;20186;-79
2021/12/16 03:41:16;;;;;;;24.40;12.97;;;6.00;99.90;;;;;;5051338;28;20204;-79
2021/12/16 03:43:45;;;;;;;25.87;13.97;;;6.10;99.90;;;;;;5068985;28;20202;-78
2021/12/16 03:46:27;;;;;;;22.57;12.40;;;6.20;99.90;;;;;;5068846;28;20201;-78
2021/12/16 03:49:17;;;;;;;23.13;13.50;;;6.20;99.90;;;;;;5069091;28;20177;-80
2021/12/16 03:51:51;;;;;;;25.73;13.70;;;6.30;99.90;;;;;;5068435;28;20643;-79
2021/12/16 03:54:19;;;;;;;22.93;12.77;;;6.30;99.90;;;;;;5068521;28;20181;-81
2021/12/16 03:56:45;;;;;;;21.63;12.77;;;6.30;99.90;;;;;;5068254;28;20186;-78
2021/12/16 03:59:15;;;;;;;22.23;12.53;;;6.30;99.90;;;;;;5067900;28;20198;-79
2021/12/16 04:01:41;;;;;;;24.20;14.30;;;6.40;99.90;;;;;;5051045;28;20234;-79
2021/12/16 04:04:07;;;;;;;27.77;13.07;;;6.30;99.90;;;;;;5051635;28;20288;-78
2021/12/16 04:06:35;;;;;;;25.60;13.50;;;6.40;99.90;;;;;;5051237;28;20746;-79
2021/12/16 04:09:02;;;;;;;25.23;13.57;;;6.40;99.90;;;;;;5058207;28;20170;-79
2021/12/16 04:11:38;;;;;;;23.40;13.13;;;6.50;99.90;;;;;;5067374;28;20177;-78
2021/12/16 04:14:06;;;;;;;30.47;15.67;;;6.40;99.90;;;;;;5068103;28;20626;-79
2021/12/16 04:16:44;;;;;;;27.60;14.07;;;6.50;99.90;;;;;;5047019;28;20273;-80
2021/12/16 04:19:13;;;;;;;22.80;13.57;;;6.50;99.90;;;;;;5058338;28;20205;-79
2021/12/16 04:21:51;;;;;;;27.70;14.03;;;6.50;99.90;;;;;;5064829;28;21095;-78
2021/12/16 04:24:17;;;;;;;25.77;15.30;;;6.50;99.90;;;;;;5067306;28;20177;-78
2021/12/16 04:26:45;;;;;;;25.10;13.80;;;6.60;99.90;;;;;;5065485;28;20242;-79
2021/12/16 04:29:11;;;;;;;27.43;14.57;;;6.70;99.90;;;;;;5067595;28;20188;-80
2021/12/16 04:31:38;;;;;;;25.20;14.40;;;6.70;99.90;;;;;;5067391;28;20235;-79
2021/12/16 04:34:06;;;;;;;28.40;14.57;;;6.70;99.90;;;;;;5041888;28;20193;-84
2021/12/16 04:36:33;;;;;;;28.83;14.30;;;6.80;99.90;;;;;;5048625;28;20319;-79
2021/12/16 04:38:59;;;;;;;30.10;15.63;;;6.80;99.90;;;;;;5065635;28;20190;-78
2021/12/16 04:41:27;;;;;;;26.03;14.87;;;6.80;99.90;;;;;;5066379;28;20196;-78
2021/12/16 04:43:55;;;;;;;26.73;14.40;;;6.80;99.90;;;;;;5066337;28;20235;-79
2021/12/16 04:46:25;;;;;;;26.57;14.60;;;6.90;99.90;;;;;;5048702;28;20214;-80
2021/12/16 04:48:55;;;;;;;26.40;14.10;;;7.00;99.90;;;;;;5057353;28;20276;-79
2021/12/16 04:51:23;;;;;;;23.07;13.43;;;7.00;99.90;;;;;;5048499;28;20970;-80
2021/12/16 04:53:49;;;;;;;23.47;13.27;;;7.00;99.90;;;;;;5067550;28;20190;-78
2021/12/16 04:56:16;;;;;;;24.40;14.37;;;7.00;99.90;;;;;;5068597;28;20185;-82
2021/12/16 04:58:46;;;;;;;25.57;14.60;;;7.00;99.90;;;;;;5064075;28;20389;-79
2021/12/16 05:01:12;;;;;;;24.30;13.53;;;7.00;99.90;;;;;;5055994;28;20280;-79
2021/12/16 05:03:38;;;;;;;23.37;13.13;;;7.10;99.90;;;;;;5075479;28;20173;-77
2021/12/16 05:06:06;;;;;;;25.23;13.60;;;7.10;99.90;;;;;;5072334;28;20538;-77
2021/12/16 05:08:31;;;;;;;23.80;14.27;;;7.20;99.90;;;;;;5076674;28;20189;-81
2021/12/16 05:11:00;;;;;;;23.30;13.03;;;7.10;99.90;;;;;;5071327;28;20206;-82
2021/12/16 05:13:27;;;;;;;22.13;13.40;;;7.20;99.90;;;;;;5070440;28;20174;-83
2021/12/16 05:15:56;;;;;;;23.60;14.30;;;7.20;99.90;;;;;;5070557;28;20189;-81
2021/12/16 05:18:30;;;;;;;26.10;13.70;;;7.20;99.90;;;;;;5070628;28;20250;-82
2021/12/16 05:20:56;;;;;;;23.30;13.23;;;7.10;99.90;;;;;;5052691;28;20228;-82
2021/12/16 05:28:56;;;;;;;23.93;13.47;;;7.10;99.90;;;;;;5069645;28;20256;-81
2021/12/16 05:31:24;;;;;;;25.40;14.43;;;7.30;99.90;;;;;;5070163;28;20531;-83
2021/12/16 05:33:51;;;;;;;21.40;12.77;;;7.20;99.90;;;;;;5052425;28;20329;-80
2021/12/16 05:36:18;;;;;;;23.47;13.63;;;7.10;99.90;;;;;;5069421;28;20280;-81
2021/12/16 05:38:45;;;;;;;27.43;14.03;;;7.20;99.90;;;;;;5052027;28;20181;-77
2021/12/16 05:41:14;;;;;;;23.73;13.03;;;7.30;99.90;;;;;;5069583;28;20212;-83
2021/12/16 05:43:40;;;;;;;24.77;14.10;;;7.30;99.90;;;;;;5066268;28;20185;-80
2021/12/16 05:46:08;;;;;;;24.57;13.93;;;7.20;99.90;;;;;;5045889;28;20205;-79
2021/12/16 05:48:37;;;;;;;25.20;14.23;;;7.20;99.90;;;;;;5063978;28;20237;-80
2021/12/16 05:51:10;;;;;;;28.37;14.77;;;7.10;99.90;;;;;;5045571;28;20663;-81
2021/12/16 05:53:37;;;;;;;27.97;14.43;;;7.10;99.90;;;;;;5068789;28;20184;-80
2021/12/16 05:56:04;;;;;;;22.67;14.03;;;7.10;99.90;;;;;;5051183;28;20308;-79
2021/12/16 05:58:31;;;;;;;24.07;13.60;;;7.00;99.90;;;;;;5050692;28;20598;-75
2021/12/16 06:01:01;;;;;;;25.43;14.37;;;7.10;99.90;;;;;;5051084;28;20205;-80
2021/12/16 06:03:28;;;;;;;24.83;14.40;;;7.10;99.90;;;;;;5050093;28;20208;-81
2021/12/16 06:05:54;;;;;;;24.50;13.80;;;7.10;99.90;;;;;;5050530;28;20216;-81
2021/12/16 06:08:21;;;;;;;28.37;14.90;;;7.00;99.90;;;;;;5068944;28;20335;-84
2021/12/16 06:13:38;;;;;;;26.73;15.07;;;7.10;99.90;;;;;;5067843;28;20562;-83
2021/12/16 06:29:29;;;;;;;32.37;15.07;;;7.20;99.90;;;;;;5067655;28;20206;-81
2021/12/16 06:31:55;;;;;;;31.37;15.00;;;7.20;99.90;;;;;;5049437;28;20186;-81
2021/12/16 06:34:22;;;;;;;32.50;16.17;;;7.20;99.90;;;;;;5049948;28;20300;-82
2021/12/16 06:36:47;;;;;;;36.60;17.60;;;7.30;99.90;;;;;;5050539;28;20264;-79
2021/12/16 06:39:13;;;;;;;34.97;16.37;;;7.30;99.90;;;;;;5068114;28;20283;-82
2021/12/16 06:41:39;;;;;;;34.17;16.30;;;7.20;99.90;;;;;;5049939;28;20181;-81
2021/12/16 06:44:15;;;;;;;34.33;17.10;;;7.20;99.90;;;;;;5049767;28;20192;-81
2021/12/16 06:46:43;;;;;;;36.57;17.17;;;7.20;99.90;;;;;;5067403;28;20547;-82
2021/12/16 06:49:11;;;;;;;38.70;17.30;;;7.20;99.90;;;;;;5048946;28;20176;-81
2021/12/16 06:51:50;;;;;;;34.83;16.63;;;7.20;99.90;;;;;;5067564;28;21198;-82
2021/12/16 06:54:29;;;;;;;35.03;17.40;;;7.30;99.90;;;;;;5053577;28;20173;-80
2021/12/16 06:59:35;;;;;;;34.57;16.60;;;7.40;99.90;;;;;;5071373;28;20691;-80
2021/12/16 07:02:17;;;;;;;36.03;17.20;;;7.30;99.90;;;;;;5053575;28;20195;-81
2021/12/16 07:04:45;;;;;;;37.83;17.83;;;7.30;99.90;;;;;;5071001;28;20232;-79
2021/12/16 07:07:13;;;;;;;38.90;17.50;;;7.30;99.90;;;;;;5070670;28;20615;-81
2021/12/16 07:09:39;;;;;;;39.43;17.53;;;7.30;99.90;;;;;;5071435;28;20308;-82
2021/12/16 07:12:07;;;;;;;37.23;18.27;;;7.40;99.90;;;;;;5052972;28;20188;-81
2021/12/16 07:14:37;;;;;;;39.83;18.70;;;7.40;99.90;;;;;;5070669;28;20205;-77
2021/12/16 07:17:12;;;;;;;37.83;17.87;;;7.40;99.90;;;;;;5053086;28;20209;-79
2021/12/16 07:19:39;;;;;;;39.37;18.37;;;7.40;99.90;;;;;;5052654;28;20200;-81
2021/12/16 07:22:06;;;;;;;38.17;18.53;;;7.30;99.90;;;;;;5070759;28;20178;-80
2021/12/16 07:24:32;;;;;;;39.07;19.73;;;7.40;99.90;;;;;;5053895;28;20178;-79
2021/12/16 07:26:58;;;;;;;42.10;19.77;;;7.40;99.90;;;;;;5071028;28;20180;-79
2021/12/16 07:29:24;;;;;;;44.80;19.67;;;7.50;99.90;;;;;;5071447;28;20197;-83
2021/12/16 07:31:50;;;;;;;45.13;20.83;;;7.50;99.90;;;;;;5053203;28;20480;-81
2021/12/16 07:34:16;;;;;;;41.70;19.57;;;7.50;99.90;;;;;;5071340;28;20182;-81
2021/12/16 07:36:44;;;;;;;43.97;20.93;;;7.50;99.90;;;;;;5053648;28;20196;-77
2021/12/16 07:39:13;;;;;;;43.77;20.53;;;7.50;99.90;;;;;;5053262;28;20208;-78
2021/12/16 07:41:41;;;;;;;43.03;20.93;;;7.50;99.90;;;;;;5071035;28;20185;-83
2021/12/16 07:44:11;;;;;;;41.13;19.63;;;7.60;99.90;;;;;;5071130;28;20197;-78
2021/12/16 07:46:41;;;;;;;42.73;20.10;;;7.60;99.90;;;;;;5070992;28;20201;-79
2021/12/16 07:49:09;;;;;;;41.43;20.10;;;7.60;99.90;;;;;;5071386;28;20170;-81
2021/12/16 07:51:36;;;;;;;44.70;20.37;;;7.60;99.90;;;;;;5052908;28;20550;-80
2021/12/16 07:54:03;;;;;;;45.50;20.07;;;7.60;99.90;;;;;;5070256;28;20186;-83
2021/12/16 07:56:29;;;;;;;45.53;19.90;;;7.70;99.90;;;;;;5062808;28;20182;-78
2021/12/16 07:58:55;;;;;;;45.27;19.87;;;7.70;99.90;;;;;;5048317;28;20205;-81
2021/12/16 08:01:22;;;;;;;44.67;19.40;;;7.70;99.90;;;;;;5070699;28;20201;-78
2021/12/16 08:03:48;;;;;;;46.67;20.17;;;7.70;99.90;;;;;;5050554;28;20185;-80
2021/12/16 08:06:22;;;;;;;43.60;20.10;;;7.80;99.90;;;;;;5069247;28;20193;-78
2021/12/16 08:08:58;;;;;;;46.57;19.40;;;7.80;99.90;;;;;;5052496;28;20213;-80
2021/12/16 08:11:26;;;;;;;39.50;18.37;;;7.80;99.90;;;;;;5060117;28;20175;-80
2021/12/16 08:13:52;;;;;;;45.03;19.30;;;7.80;99.90;;;;;;5051966;28;20273;-79
2021/12/16 08:16:22;;;;;;;40.63;18.60;;;7.80;99.90;;;;;;5051365;28;20265;-80
2021/12/16 08:18:52;;;;;;;45.07;19.57;;;7.80;99.90;;;;;;5068377;28;20196;-81
2021/12/16 08:21:20;;;;;;;45.97;18.83;;;7.90;99.90;;;;;;5067655;28;20464;-79
2021/12/16 08:23:45;;;;;;;46.53;19.33;;;7.80;99.90;;;;;;5069713;28;20185;-79
2021/12/16 08:26:12;;;;;;;43.30;18.63;;;7.90;99.90;;;;;;5066301;28;20720;-78
2021/12/16 08:28:38;;;;;;;43.13;20.33;;;8.00;99.90;;;;;;5067327;28;20539;-79
2021/12/16 08:31:06;;;;;;;43.37;18.90;;;8.00;99.90;;;;;;5066448;28;20459;-79
2021/12/16 08:33:32;;;;;;;41.30;18.13;;;7.90;99.90;;;;;;5048227;28;20226;-78
2021/12/16 08:35:58;;;;;;;45.77;20.00;;;7.90;99.90;;;;;;5048939;28;20181;-77
2021/12/16 08:38:26;;;;;;;42.07;20.27;;;8.00;99.90;;;;;;5066628;28;20209;-79
2021/12/16 08:40:59;;;;;;;45.87;20.17;;;8.00;99.90;;;;;;5048448;28;20201;-79
2021/12/16 08:43:25;;;;;;;41.67;18.33;;;8.00;99.90;;;;;;5067102;28;20174;-78
2021/12/16 08:45:51;;;;;;;41.67;19.17;;;7.90;99.90;;;;;;5066604;28;20223;-76
2021/12/16 08:48:18;;;;;;;43.70;19.17;;;7.90;99.90;;;;;;5066798;28;20255;-80
2021/12/16 08:50:47;;;;;;;41.50;18.13;;;7.90;99.90;;;;;;5065693;28;20197;-76
2021/12/16 08:53:17;;;;;;;44.60;19.47;;;7.90;99.90;;;;;;5066757;28;20188;-78
2021/12/16 08:55:44;;;;;;;39.83;18.17;;;8.00;99.90;;;;;;5048945;28;20237;-83
2021/12/16 08:58:10;;;;;;;43.63;18.90;;;7.90;99.90;;;;;;5049394;28;20190;-81
2021/12/16 09:00:40;;;;;;;47.13;20.00;;;7.90;99.90;;;;;;5065614;28;20197;-79
2021/12/16 09:03:06;;;;;;;43.83;18.97;;;8.10;99.90;;;;;;5064275;28;20535;-79
2021/12/16 09:05:33;;;;;;;44.17;18.73;;;8.10;99.90;;;;;;5046148;28;20213;-76
2021/12/16 09:07:59;;;;;;;47.53;20.40;;;8.10;99.90;;;;;;5045758;28;20583;-81
2021/12/16 09:10:29;;;;;;;46.67;20.37;;;8.10;99.90;;;;;;5045979;28;20190;-80
2021/12/16 09:15:26;;;;;;;44.53;20.93;;;8.10;99.90;;;;;;5063596;28;20204;-80
2021/12/16 09:17:53;;;;;;;45.43;20.50;;;8.10;99.90;;;;;;5045675;28;20196;-79
2021/12/16 09:20:20;;;;;;;44.80;20.60;;;8.20;99.90;;;;;;5063836;28;20203;-78
2021/12/16 09:22:46;;;;;;;46.37;19.77;;;8.20;99.90;;;;;;5064203;28;20461;-86
2021/12/16 09:25:12;;;;;;;46.27;21.17;;;8.20;99.90;;;;;;5075168;28;20196;-83
2021/12/16 09:27:38;;;;;;;45.57;20.97;;;8.10;99.90;;;;;;5050419;28;20181;-78
2021/12/16 09:30:07;;;;;;;47.43;21.07;;;8.20;99.90;;;;;;5047471;28;20576;-80
2021/12/16 09:32:33;;;;;;;48.13;21.10;;;8.20;99.90;;;;;;5065579;28;20671;-80
2021/12/16 09:34:59;;;;;;;45.37;22.37;;;8.20;99.90;;;;;;5047456;28;20247;-77
2021/12/16 09:37:24;;;;;;;45.70;21.87;;;8.30;99.90;;;;;;5065710;28;20645;-81
2021/12/16 09:39:50;;;;;;;48.63;21.57;;;8.20;99.90;;;;;;5065338;28;20193;-75
2021/12/16 09:42:16;;;;;;;46.87;21.67;;;8.30;99.90;;;;;;5047462;28;20188;-80
2021/12/16 09:44:42;;;;;;;42.47;21.50;;;8.30;99.90;;;;;;5047024;28;20209;-77
2021/12/16 09:47:11;;;;;;;52.40;22.67;;;8.30;99.90;;;;;;5047095;28;20185;-78
2021/12/16 09:49:37;;;;;;;48.70;22.47;;;8.40;99.90;;;;;;5047047;28;20204;-79
2021/12/16 09:52:05;;;;;;;43.70;20.67;;;8.30;99.90;;;;;;5047384;28;21098;-81
2021/12/16 09:54:32;;;;;;;44.80;21.83;;;8.30;99.90;;;;;;5064888;28;20173;-79
2021/12/16 09:56:59;;;;;;;46.57;21.87;;;8.20;99.90;;;;;;5047012;28;20367;-81
2021/12/16 09:59:27;;;;;;;48.93;22.40;;;8.30;99.90;;;;;;5046721;28;20216;-79
2021/12/16 10:01:56;;;;;;;41.73;21.67;;;8.30;99.90;;;;;;5047016;28;20272;-79
2021/12/16 10:04:25;;;;;;;45.37;21.63;;;8.30;99.90;;;;;;5047422;28;20558;-79
2021/12/16 10:06:53;;;;;;;46.50;21.83;;;8.40;99.90;;;;;;5047032;28;20181;-80
2021/12/16 10:09:19;;;;;;;45.03;22.07;;;8.40;99.90;;;;;;5065366;28;20193;-80
2021/12/16 10:11:48;;;;;;;43.90;20.63;;;8.40;99.90;;;;;;5046560;28;20280;-81
2021/12/16 10:19:28;;;;;;;45.70;21.37;;;8.60;99.90;;;;;;5065207;28;20519;-83
2021/12/16 10:21:55;;;;;;;42.10;21.07;;;8.60;99.90;;;;;;5065190;28;20235;-75
2021/12/16 10:24:28;;;;;;;40.83;19.93;;;8.60;99.90;;;;;;5066693;28;20203;-79
2021/12/16 10:27:10;;;;;;;41.03;19.97;;;8.60;99.90;;;;;;5051494;28;20181;-83
2021/12/16 10:29:58;;;;;;;41.07;19.93;;;8.60;99.90;;;;;;5052858;28;20328;-76
2021/12/16 10:32:45;;;;;;;39.57;19.60;;;8.60;99.90;;;;;;5052440;28;20212;-77
2021/12/16 10:35:26;;;;;;;41.47;20.17;;;8.80;99.90;;;;;;5051395;28;20185;-76
2021/12/16 10:37:58;;;;;;;43.63;21.30;;;8.80;99.90;;;;;;5070791;28;20181;-81
2021/12/16 10:40:44;;;;;;;40.67;19.83;;;8.80;99.90;;;;;;5052495;28;20201;-77
2021/12/16 10:43:15;;;;;;;42.50;21.63;;;8.80;99.90;;;;;;5069269;28;20251;-78
2021/12/16 10:45:46;;;;;;;39.80;21.33;;;8.90;99.90;;;;;;5070031;28;20205;-79
2021/12/16 10:48:25;;;;;;;37.97;20.07;;;8.90;99.90;;;;;;5051749;28;20178;-79
2021/12/16 10:50:59;;;;;;;37.03;19.33;;;8.90;99.90;;;;;;5069700;28;20197;-80
2021/12/16 10:53:47;;;;;;;38.90;19.43;;;8.80;99.90;;;;;;5070464;28;20184;-80
2021/12/16 10:56:13;;;;;;;37.80;18.23;;;8.70;99.90;;;;;;5051396;28;20181;-77
2021/12/16 10:59:08;;;;;;;37.37;18.83;;;8.70;99.90;;;;;;5069849;28;20232;-80
2021/12/16 11:01:56;;;;;;;38.00;17.80;;;8.70;99.90;;;;;;5068495;28;20778;-81
2021/12/16 11:04:32;;;;;;;35.67;18.70;;;8.70;99.90;;;;;;5070019;28;20516;-80
2021/12/16 11:07:03;;;;;;;35.13;18.60;;;8.70;99.90;;;;;;5069809;28;20222;-77
2021/12/16 11:09:32;;;;;;;34.57;17.23;;;8.60;99.90;;;;;;5051152;28;20285;-78
2021/12/16 11:12:26;;;;;;;35.67;17.57;;;8.60;99.90;;;;;;5052755;28;20545;-82
2021/12/16 11:15:13;;;;;;;32.30;16.87;;;8.70;99.90;;;;;;5014655;28;20201;-78
2021/12/16 11:17:44;;;;;;;37.10;18.43;;;8.70;99.90;;;;;;5069094;28;20193;-81
2021/12/16 11:20:18;;;;;;;38.50;17.67;;;8.70;99.90;;;;;;5068855;28;20197;-79
2021/12/16 11:22:46;;;;;;;34.87;16.90;;;8.70;99.90;;;;;;5069141;28;20677;-79
2021/12/16 11:25:15;;;;;;;32.87;17.83;;;8.70;99.90;;;;;;5068845;28;20718;-80
2021/12/16 11:27:44;;;;;;;33.50;17.20;;;8.70;99.90;;;;;;5069815;28;20178;-81
2021/12/16 11:30:31;;;;;;;34.10;17.30;;;8.70;99.90;;;;;;5050642;28;20536;-81
2021/12/16 11:33:12;;;;;;;34.03;16.80;;;8.60;99.90;;;;;;5050699;28;20174;-83
2021/12/16 11:35:42;;;;;;;33.87;16.93;;;8.60;99.90;;;;;;5068876;28;20197;-78
2021/12/16 11:38:19;;;;;;;32.80;16.17;;;8.70;99.90;;;;;;5067438;28;20177;-82
2021/12/16 11:40:59;;;;;;;32.63;16.13;;;8.70;99.90;;;;;;5068833;28;20227;-79
2021/12/16 11:43:48;;;;;;;30.77;16.30;;;8.80;99.90;;;;;;5050673;28;20201;-76
2021/12/16 11:46:20;;;;;;;28.87;16.17;;;8.80;99.90;;;;;;5067846;28;20201;-76
2021/12/16 11:48:47;;;;;;;26.60;14.43;;;8.80;99.90;;;;;;5067443;28;20188;-78
2021/12/16 11:51:18;;;;;;;27.70;14.60;;;8.80;99.90;;;;;;5066771;28;20406;-77
2021/12/16 11:53:51;;;;;;;27.70;14.27;;;8.80;99.90;;;;;;5067044;28;20193;-77
2021/12/16 11:56:19;;;;;;;26.53;14.63;;;8.80;99.90;;;;;;5066640;28;20174;-79
2021/12/16 11:58:46;;;;;;;28.30;14.53;;;8.80;99.90;;;;;;5066489;28;20204;-78
2021/12/16 12:01:18;;;;;;;30.27;14.80;;;8.80;99.90;;;;;;5065913;28;20284;-78
2021/12/16 12:03:44;;;;;;;23.53;13.33;;;8.80;99.90;;;;;;5048097;28;20190;-81
2021/12/16 12:06:29;;;;;;;27.60;13.90;;;8.80;99.90;;;;;;5066796;28;20198;-79
2021/12/16 12:08:57;;;;;;;26.87;13.97;;;8.80;99.90;;;;;;5066307;28;20205;-77
2021/12/16 12:11:31;;;;;;;27.27;14.50;;;8.70;99.90;;;;;;5066411;28;20193;-75
2021/12/16 12:14:03;;;;;;;25.27;13.13;;;8.80;99.90;;;;;;5065382;28;20193;-76
2021/12/16 12:16:33;;;;;;;23.07;12.43;;;8.80;99.90;;;;;;5066035;28;20197;-80
2021/12/16 12:19:17;;;;;;;23.67;12.63;;;8.80;99.90;;;;;;5052627;28;20188;-77
2021/12/16 12:21:50;;;;;;;22.87;12.53;;;8.80;99.90;;;;;;5049178;28;20273;-79
2021/12/16 12:24:25;;;;;;;26.63;13.83;;;8.80;99.90;;;;;;5047490;28;20185;-78
2021/12/16 12:26:52;;;;;;;23.77;12.53;;;8.90;99.90;;;;;;5048190;28;20695;-80
2021/12/16 12:29:23;;;;;;;21.67;12.40;;;8.80;99.90;;;;;;5064923;28;20671;-79
2021/12/16 12:32:03;;;;;;;24.87;13.23;;;8.80;99.90;;;;;;5046706;28;20186;-78
2021/12/16 12:34:30;;;;;;;23.17;13.03;;;8.90;99.90;;;;;;5046409;28;20230;-77
2021/12/16 12:36:59;;;;;;;25.27;14.70;;;8.90;99.90;;;;;;5064166;28;20182;-80
2021/12/16 12:39:32;;;;;;;25.77;14.37;;;8.80;99.90;;;;;;5064505;28;20230;-78
2021/12/16 12:41:58;;;;;;;24.73;14.73;;;8.80;99.90;;;;;;5064425;28;20655;-78
2021/12/16 12:44:24;;;;;;;23.03;13.13;;;8.80;99.90;;;;;;5046508;28;20193;-78
2021/12/16 12:46:51;;;;;;;22.10;11.70;;;8.80;99.90;;;;;;5046754;28;20209;-79
2021/12/16 12:49:25;;;;;;;23.83;12.47;;;8.90;99.90;;;;;;5048948;28;20270;-80
2021/12/16 12:52:00;;;;;;;20.87;11.83;;;8.80;99.90;;;;;;5048272;28;20268;-79
2021/12/16 12:54:29;;;;;;;20.10;12.00;;;8.80;99.90;;;;;;5065999;28;20784;-80
2021/12/16 12:56:58;;;;;;;21.27;12.20;;;8.80;99.90;;;;;;5065453;28;20737;-80
2021/12/16 12:59:38;;;;;;;19.80;11.50;;;8.80;99.90;;;;;;5047691;28;20213;-77
2021/12/16 13:02:33;;;;;;;21.53;12.07;;;8.80;99.90;;;;;;5065332;28;20181;-77
2021/12/16 13:05:07;;;;;;;21.03;11.07;;;8.70;99.90;;;;;;5046947;28;20543;-77
2021/12/16 13:07:43;;;;;;;23.03;13.07;;;8.70;99.90;;;;;;5065158;28;20213;-79
2021/12/16 13:10:16;;;;;;;23.23;11.73;;;8.70;99.90;;;;;;5047228;28;20480;-79
2021/12/16 13:15:47;;;;;;;20.40;11.17;;;8.80;99.90;;;;;;5065372;28;20188;-79
2021/12/16 13:24:28;;;;;;;18.07;10.10;;;8.80;99.90;;;;;;5065782;28;20200;-79
2021/12/16 13:26:46;;;;;;;16.90;9.70;;;8.80;99.90;;;;;;5064224;28;20240;-79
2021/12/16 13:29:41;;;;;;;15.40;9.57;;;8.70;99.90;;;;;;5047541;28;20197;-79
2021/12/16 13:32:17;;;;;;;17.47;9.10;;;8.70;99.90;;;;;;5065622;28;20655;-79
2021/12/16 13:35:12;;;;;;;15.37;9.23;;;8.70;99.90;;;;;;5065503;28;20177;-79
2021/12/16 13:37:41;;;;;;;16.17;10.20;;;8.70;99.90;;;;;;5065297;28;20471;-78
2021/12/16 13:40:07;;;;;;;17.93;9.90;;;8.70;99.90;;;;;;5065062;28;20197;-76
2021/12/16 13:42:42;;;;;;;17.30;10.53;;;8.70;99.90;;;;;;5065507;28;20189;-77
2021/12/16 13:45:22;;;;;;;18.17;11.17;;;8.60;99.90;;;;;;5062163;28;20205;-79
2021/12/16 13:48:19;;;;;;;16.13;9.73;;;8.60;99.90;;;;;;5046353;28;20232;-79
2021/12/16 14:10:23;;;;;;;15.40;8.53;;;8.50;99.90;;;;;;5064149;28;20265;-78
2021/12/16 14:36:15;;;;;;;12.60;8.07;;;8.40;99.90;;;;;;5057846;28;20662;-78
2021/12/16 14:43:40;;;;;;;13.30;8.80;;;8.30;99.90;;;;;;5062062;28;20628;-81
2021/12/16 14:46:09;;;;;;;12.20;8.20;;;8.30;99.90;;;;;;5063322;28;20251;-78
2021/12/16 14:48:38;;;;;;;17.23;9.77;;;8.30;99.90;;;;;;5062672;28;20268;-77
2021/12/16 14:51:05;;;;;;;17.33;9.90;;;8.30;99.90;;;;;;5060045;28;20473;-78
2021/12/16 14:53:38;;;;;;;14.80;8.97;;;8.30;99.90;;;;;;5042446;28;20184;-79
2021/12/16 14:56:18;;;;;;;15.80;9.27;;;8.30;99.90;;;;;;5058970;28;20223;-77
2021/12/16 14:58:48;;;;;;;12.40;8.67;;;8.30;99.90;;;;;;5058365;28;20586;-79
2021/12/16 15:01:20;;;;;;;16.03;9.20;;;8.30;99.90;;;;;;5060340;28;21037;-78
2021/12/16 15:03:47;;;;;;;14.00;8.77;;;8.30;99.90;;;;;;5061255;28;20193;-78
2021/12/16 15:06:19;;;;;;;16.97;9.00;;;8.40;99.90;;;;;;5059411;28;20414;-77
2021/12/16 15:08:58;;;;;;;16.97;10.97;;;8.30;99.90;;;;;;5041915;28;20517;-78
2021/12/16 15:11:45;;;;;;;14.80;9.37;;;8.30;99.90;;;;;;5042280;28;20329;-78
2021/12/16 15:14:30;;;;;;;14.17;9.20;;;8.30;99.90;;;;;;5063653;28;20177;-79
2021/12/16 15:17:13;;;;;;;16.47;10.97;;;8.30;99.90;;;;;;5045521;28;20189;-77
2021/12/16 15:44:31;;;;;;;12.37;7.53;;;8.00;99.90;;;;;;5064327;28;20185;-79
2021/12/16 15:46:57;;;;;;;13.40;8.73;;;7.90;99.90;;;;;;5044763;28;20209;-80
2021/12/16 15:49:23;;;;;;;13.37;9.13;;;7.90;99.90;;;;;;5061570;28;20576;-77
2021/12/16 15:51:52;;;;;;;14.33;8.80;;;8.00;99.90;;;;;;5045757;28;20201;-78
2021/12/16 15:54:18;;;;;;;13.80;8.30;;;7.90;99.90;;;;;;5063072;28;20648;-77
2021/12/16 15:56:47;;;;;;;14.70;8.50;;;7.90;99.90;;;;;;5066988;28;20166;-77
2021/12/16 15:59:18;;;;;;;12.07;8.60;;;7.90;99.90;;;;;;5048914;28;20229;-78
2021/12/16 16:01:48;;;;;;;14.77;8.77;;;7.90;99.90;;;;;;5066573;28;20328;-78
2021/12/16 16:04:23;;;;;;;11.80;7.93;;;7.90;99.90;;;;;;5065236;28;20193;-78
2021/12/16 16:06:58;;;;;;;11.73;7.77;;;7.90;99.90;;;;;;5045614;28;20213;-78
2021/12/16 16:09:27;;;;;;;12.70;7.63;;;7.90;99.90;;;;;;5064339;28;20211;-78
2021/12/16 16:11:54;;;;;;;9.77;6.43;;;7.90;99.90;;;;;;5064575;28;20621;-77
2021/12/16 16:14:22;;;;;;;13.20;7.80;;;7.90;99.90;;;;;;5045743;28;20177;-78
2021/12/16 16:16:53;;;;;;;12.53;8.40;;;7.90;99.90;;;;;;5048345;28;20327;-81
2021/12/16 16:19:34;;;;;;;10.37;7.33;;;7.90;99.90;;;;;;5068659;28;20232;-80
2021/12/16 16:22:03;;;;;;;14.53;7.10;;;7.90;99.90;;;;;;5067894;28;20182;-79
2021/12/16 16:24:32;;;;;;;12.67;7.83;;;7.90;99.90;;;;;;5066772;28;20269;-80
2021/12/16 16:27:01;;;;;;;11.50;7.67;;;7.80;99.90;;;;;;5065058;28;20762;-81
2021/12/16 16:29:31;;;;;;;11.20;7.60;;;7.80;99.90;;;;;;5050090;28;20583;-80
2021/12/16 16:31:57;;;;;;;11.17;7.00;;;7.80;99.90;;;;;;5068089;28;20182;-79
2021/12/16 16:34:30;;;;;;;19.97;12.63;;;7.90;99.90;;;;;;5067281;28;20182;-78
2021/12/16 16:37:00;;;;;;;15.07;9.80;;;7.90;99.90;;;;;;5068297;28;20530;-80
2021/12/16 16:39:29;;;;;;;11.50;8.13;;;7.90;99.90;;;;;;5050025;28;20201;-80
2021/12/16 16:41:59;;;;;;;10.00;7.13;;;7.90;99.90;;;;;;5068588;28;20185;-78
2021/12/16 16:44:26;;;;;;;11.17;7.37;;;7.90;99.90;;;;;;5068271;28;20185;-76
2021/12/16 16:47:09;;;;;;;11.57;7.53;;;8.10;99.90;;;;;;5068696;28;20259;-81
2021/12/16 16:49:47;;;;;;;10.90;7.10;;;8.00;99.90;;;;;;5066722;28;20569;-81
2021/12/16 16:52:17;;;;;;;10.97;7.53;;;8.00;99.90;;;;;;5066409;28;20260;-78